createdAt,value
2017-04-01T00:00:51.493Z,35.84
2017-04-01T00:02:01.445Z,36.13
2017-04-01T00:03:24.444Z,36.13
2017-04-01T00:04:33.818Z,35.84
2017-04-01T00:05:43.980Z,35.94
2017-04-01T00:06:53.604Z,35.94
2017-04-01T00:08:03.838Z,35.94
2017-04-01T00:09:14.104Z,35.94
2017-04-01T00:10:24.078Z,35.94
2017-04-01T00:11:34.324Z,36.13
2017-04-01T00:12:44.262Z,36.13
2017-04-01T00:13:54.372Z,36.13
2017-04-01T00:15:04.297Z,36.03
2017-04-01T00:16:14.228Z,36.03
2017-04-01T00:17:24.174Z,36.22
2017-04-01T00:18:34.452Z,36.13
2017-04-01T00:19:45.095Z,36.32
2017-04-01T00:20:55.058Z,36.22
2017-04-01T00:22:04.979Z,36.32
2017-04-01T00:23:14.648Z,36.32
2017-04-01T00:24:24.903Z,36.32
2017-04-01T00:25:35.404Z,36.22
2017-04-01T00:26:45.648Z,36.32
2017-04-01T00:27:55.616Z,36.22
2017-04-01T00:29:05.258Z,36.42
2017-04-01T00:30:14.915Z,36.22
2017-04-01T00:31:24.987Z,36.13
2017-04-01T00:32:34.937Z,36.22
2017-04-01T00:33:43.935Z,36.22
2017-04-01T00:34:53.596Z,36.22
2017-04-01T00:36:03.946Z,36.13
2017-04-01T00:37:14.360Z,36.22
2017-04-01T00:38:24.605Z,36.22
2017-04-01T00:39:34.259Z,36.32
2017-04-01T00:40:44.251Z,36.22
2017-04-01T00:41:54.213Z,36.32
2017-04-01T00:43:03.988Z,36.22
2017-04-01T00:44:13.322Z,36.32
2017-04-01T00:45:22.647Z,36.32
2017-04-01T00:46:32.276Z,36.32
2017-04-01T00:47:42.209Z,36.13
2017-04-01T00:48:51.872Z,36.22
2017-04-01T00:50:01.805Z,36.22
2017-04-01T00:51:12.055Z,36.32
2017-04-01T00:52:21.698Z,36.22
2017-04-01T00:53:31.354Z,36.32
2017-04-01T00:54:41.465Z,36.22
2017-04-01T00:55:51.398Z,36.22
2017-04-01T00:57:01.352Z,36.32
2017-04-01T00:58:11.296Z,36.32
2017-04-01T00:59:21.265Z,36.22
2017-04-01T01:00:31.357Z,36.32
2017-04-01T01:01:41.613Z,36.32
2017-04-01T01:02:51.551Z,36.22
2017-04-01T01:04:01.604Z,36.42
2017-04-01T01:05:11.016Z,36.32
2017-04-01T01:06:21.321Z,36.32
2017-04-01T01:07:31.029Z,36.42
2017-04-01T01:08:41.280Z,36.22
2017-04-01T01:09:51.536Z,36.42
2017-04-01T01:11:01.510Z,36.32
2017-04-01T01:12:12.032Z,36.42
2017-04-01T01:13:21.998Z,36.32
2017-04-01T01:14:31.921Z,36.52
2017-04-01T01:15:41.861Z,36.32
2017-04-01T01:16:52.095Z,36.22
2017-04-01T01:18:02.423Z,36.42
2017-04-01T01:19:12.051Z,36.42
2017-04-01T01:20:22.014Z,36.32
2017-04-01T01:21:32.277Z,36.32
2017-04-01T01:22:42.503Z,36.42
2017-04-01T01:23:52.873Z,36.32
2017-04-01T01:25:03.101Z,36.32
2017-04-01T01:26:13.028Z,36.22
2017-04-01T01:27:23.245Z,36.52
2017-04-01T01:28:32.549Z,36.22
2017-04-01T01:29:43.128Z,36.22
2017-04-01T01:30:53.355Z,36.52
2017-04-01T01:32:03.610Z,36.42
2017-04-01T01:33:13.516Z,36.42
2017-04-01T01:34:23.740Z,36.42
2017-04-01T01:35:34.255Z,36.52
2017-04-01T01:36:44.488Z,36.42
2017-04-01T01:37:54.090Z,36.52
2017-04-01T01:39:03.681Z,36.42
2017-04-01T01:40:13.622Z,36.32
2017-04-01T01:41:24.172Z,36.22
2017-04-01T01:42:33.798Z,36.42
2017-04-01T01:43:44.057Z,36.13
2017-04-01T01:44:53.668Z,36.22
2017-04-01T01:46:03.280Z,36.32
2017-04-01T01:47:13.225Z,36.03
2017-04-01T01:48:23.443Z,36.32
2017-04-01T01:49:33.392Z,36.22
2017-04-01T01:50:43.635Z,36.22
2017-04-01T01:51:53.873Z,36.03
2017-04-01T01:53:03.338Z,36.52
2017-04-01T01:54:12.632Z,36.42
2017-04-01T01:55:22.542Z,36.42
2017-04-01T01:56:32.188Z,36.42
2017-04-01T01:57:41.816Z,36.42
2017-04-01T01:58:52.152Z,36.32
2017-04-01T02:00:02.074Z,36.22
2017-04-01T02:01:12.004Z,36.42
2017-04-01T02:02:22.264Z,36.52
2017-04-01T02:03:31.556Z,36.52
2017-04-01T02:04:41.463Z,36.52
2017-04-01T02:05:51.706Z,36.52
2017-04-01T02:07:01.969Z,36.22
2017-04-01T02:08:11.923Z,36.32
2017-04-01T02:09:21.836Z,36.32
2017-04-01T02:10:31.999Z,36.32
2017-04-01T02:11:41.304Z,36.32
2017-04-01T02:12:51.210Z,36.32
2017-04-01T02:14:01.190Z,36.52
2017-04-01T02:15:10.499Z,36.32
2017-04-01T02:16:20.258Z,36.42
2017-04-01T02:17:30.178Z,36.42
2017-04-01T02:18:40.094Z,36.42
2017-04-01T02:19:50.306Z,36.52
2017-04-01T02:21:00.223Z,36.52
2017-04-01T02:22:10.619Z,36.52
2017-04-01T02:23:20.230Z,36.42
2017-04-01T02:24:30.162Z,36.52
2017-04-01T02:25:40.385Z,36.52
2017-04-01T02:26:50.360Z,36.42
2017-04-01T02:28:01.108Z,36.52
2017-04-01T02:29:10.723Z,36.61
2017-04-01T02:30:20.339Z,36.52
2017-04-01T02:31:30.261Z,36.52
2017-04-01T02:32:40.187Z,36.61
2017-04-01T02:33:49.923Z,36.52
2017-04-01T02:35:00.153Z,36.42
2017-04-01T02:36:10.098Z,36.42
2017-04-01T02:37:20.316Z,36.42
2017-04-01T02:38:29.981Z,36.42
2017-04-01T02:39:39.888Z,36.52
2017-04-01T02:40:49.806Z,36.42
2017-04-01T02:41:59.416Z,36.52
2017-04-01T02:43:09.633Z,36.42
2017-04-01T02:44:19.244Z,36.52
2017-04-01T02:45:29.330Z,36.61
2017-04-01T02:46:39.253Z,36.61
2017-04-01T02:47:49.474Z,36.61
2017-04-01T02:48:59.730Z,36.42
2017-04-01T02:50:09.351Z,36.52
2017-04-01T02:51:19.566Z,36.5
2017-04-01T02:52:29.565Z,36.61
2017-04-01T02:53:39.480Z,36.52
2017-04-01T02:54:49.097Z,36.59
2017-04-01T02:55:59.031Z,36.69
2017-04-01T02:57:09.245Z,36.61
2017-04-01T02:58:19.462Z,36.5
2017-04-01T02:59:29.384Z,36.52
2017-04-01T03:00:38.986Z,36.71
2017-04-01T03:01:49.209Z,36.69
2017-04-01T03:02:59.376Z,36.59
2017-04-01T03:04:09.385Z,36.59
2017-04-01T03:05:19.293Z,36.69
2017-04-01T03:06:29.212Z,36.8
2017-04-01T03:07:39.134Z,36.59
2017-04-01T03:08:48.754Z,36.69
2017-04-01T03:09:58.055Z,36.59
2017-04-01T03:11:07.655Z,36.71
2017-04-01T03:12:17.910Z,36.59
2017-04-01T03:13:28.137Z,36.59
2017-04-01T03:14:38.616Z,36.69
2017-04-01T03:15:48.838Z,36.69
2017-04-01T03:16:59.547Z,36.52
2017-04-01T03:18:09.749Z,36.59
2017-04-01T03:19:19.401Z,36.71
2017-04-01T03:20:29.459Z,36.69
2017-04-01T03:21:39.669Z,36.79
2017-04-01T03:22:49.281Z,36.79
2017-04-01T03:23:59.235Z,36.69
2017-04-01T03:25:08.848Z,36.79
2017-04-01T03:26:18.716Z,36.79
2017-04-01T03:27:29.045Z,36.69
2017-04-01T03:28:38.957Z,36.71
2017-04-01T03:29:49.165Z,36.69
2017-04-01T03:30:59.120Z,36.5
2017-04-01T03:32:09.647Z,36.79
2017-04-01T03:33:19.291Z,36.69
2017-04-01T03:34:28.947Z,36.69
2017-04-01T03:35:38.880Z,36.69
2017-04-01T03:36:48.809Z,36.69
2017-04-01T03:37:58.869Z,36.79
2017-04-01T03:39:08.783Z,36.79
2017-04-01T03:40:18.387Z,36.69
2017-04-01T03:41:27.369Z,36.69
2017-04-01T03:42:37.615Z,36.69
2017-04-01T03:43:47.392Z,36.79
2017-04-01T03:44:57.620Z,36.79
2017-04-01T03:46:07.550Z,36.69
2017-04-01T03:47:17.472Z,36.69
2017-04-01T03:48:27.090Z,36.69
2017-04-01T03:49:37.150Z,36.71
2017-04-01T03:50:46.890Z,36.69
2017-04-01T03:51:56.525Z,36.69
2017-04-01T03:53:06.132Z,36.69
2017-04-01T03:54:15.775Z,36.71
2017-04-01T03:55:25.941Z,36.69
2017-04-01T03:56:35.847Z,36.69
2017-04-01T03:57:45.758Z,36.69
2017-04-01T03:58:56.134Z,36.79
2017-04-01T04:00:06.077Z,36.79
2017-04-01T04:01:16.170Z,36.79
2017-04-01T04:02:26.085Z,36.69
2017-04-01T04:03:35.718Z,36.69
2017-04-01T04:04:45.319Z,36.79
2017-04-01T04:05:54.916Z,36.69
2017-04-01T04:07:05.080Z,36.79
2017-04-01T04:08:15.066Z,36.69
2017-04-01T04:09:24.979Z,36.69
2017-04-01T04:10:35.184Z,36.69
2017-04-01T04:11:45.190Z,36.79
2017-04-01T04:12:54.670Z,36.79
2017-04-01T04:14:04.320Z,36.69
2017-04-01T04:15:14.561Z,36.69
2017-04-01T04:16:24.496Z,36.69
2017-04-01T04:17:34.831Z,36.69
2017-04-01T04:18:44.664Z,36.69
2017-04-01T04:19:54.600Z,36.69
2017-04-01T04:21:04.516Z,36.69
2017-04-01T04:22:14.128Z,36.79
2017-04-01T04:23:24.340Z,36.59
2017-04-01T04:24:35.307Z,36.69
2017-04-01T04:25:45.523Z,36.59
2017-04-01T04:26:55.501Z,36.79
2017-04-01T04:28:04.800Z,36.69
2017-04-01T04:29:14.714Z,36.69
2017-04-01T04:30:25.083Z,36.79
2017-04-01T04:31:34.683Z,36.69
2017-04-01T04:32:44.909Z,36.59
2017-04-01T04:33:54.516Z,36.79
2017-04-01T04:35:04.498Z,36.69
2017-04-01T04:36:14.695Z,36.88
2017-04-01T04:37:24.310Z,36.88
2017-04-01T04:38:33.943Z,36.79
2017-04-01T04:39:43.871Z,36.69
2017-04-01T04:40:54.088Z,36.79
2017-04-01T04:42:03.820Z,36.88
2017-04-01T04:43:13.420Z,36.69
2017-04-01T04:44:23.359Z,36.79
2017-04-01T04:45:33.289Z,36.79
2017-04-01T04:46:43.492Z,36.79
2017-04-01T04:47:53.349Z,36.79
2017-04-01T04:49:03.267Z,36.88
2017-04-01T04:50:13.205Z,36.79
2017-04-01T04:51:23.495Z,36.88
2017-04-01T04:52:32.793Z,36.79
2017-04-01T04:53:42.848Z,36.69
2017-04-01T04:54:51.835Z,36.69
2017-04-01T04:56:01.456Z,36.88
2017-04-01T04:57:11.051Z,36.69
2017-04-01T04:58:20.967Z,36.79
2017-04-01T04:59:31.336Z,36.69
2017-04-01T05:00:41.239Z,36.88
2017-04-01T05:01:51.467Z,36.79
2017-04-01T05:03:01.093Z,36.69
2017-04-01T05:04:10.380Z,36.79
2017-04-01T05:05:20.427Z,36.79
2017-04-01T05:06:30.363Z,36.69
2017-04-01T05:07:40.716Z,36.79
2017-04-01T05:08:50.968Z,36.79
2017-04-01T05:10:00.255Z,36.69
2017-04-01T05:11:10.349Z,36.88
2017-04-01T05:12:19.977Z,36.79
2017-04-01T05:13:29.886Z,36.79
2017-04-01T05:14:39.535Z,36.69
2017-04-01T05:15:49.500Z,36.69
2017-04-01T05:16:59.509Z,36.88
2017-04-01T05:18:09.440Z,36.88
2017-04-01T05:19:19.359Z,36.88
2017-04-01T05:20:28.963Z,36.69
2017-04-01T05:21:38.266Z,36.88
2017-04-01T05:22:49.008Z,36.88
2017-04-01T05:23:59.227Z,36.88
2017-04-01T05:25:09.444Z,36.88
2017-04-01T05:26:19.386Z,36.79
2017-04-01T05:27:29.291Z,36.79
2017-04-01T05:28:39.172Z,36.88
2017-04-01T05:29:49.140Z,36.69
2017-04-01T05:30:59.271Z,36.69
2017-04-01T05:32:09.181Z,36.69
2017-04-01T05:33:18.788Z,36.79
2017-04-01T05:34:28.843Z,36.79
2017-04-01T05:35:38.156Z,36.69
2017-04-01T05:36:48.382Z,36.69
2017-04-01T05:37:58.275Z,36.69
2017-04-01T05:39:08.192Z,36.5
2017-04-01T05:40:18.408Z,36.69
2017-04-01T05:41:28.320Z,36.69
2017-04-01T05:42:38.536Z,36.3
2017-04-01T05:43:48.447Z,36.5
2017-04-01T05:44:58.687Z,36.5
2017-04-01T05:46:08.341Z,36.5
2017-04-01T05:47:18.270Z,36.4
2017-04-01T05:48:28.178Z,36.5
2017-04-01T05:49:38.387Z,36.5
2017-04-01T05:50:48.597Z,36.4
2017-04-01T05:51:58.913Z,36.5
2017-04-01T05:53:09.132Z,36.5
2017-04-01T05:54:19.046Z,36.4
2017-04-01T05:55:28.961Z,36.42
2017-04-01T05:56:38.863Z,36.01
2017-04-01T05:57:48.327Z,36.01
2017-04-01T05:58:58.551Z,36.5
2017-04-01T06:00:08.759Z,36.42
2017-04-01T06:01:18.359Z,36.3
2017-04-01T06:02:27.961Z,36.59
2017-04-01T06:03:37.872Z,36.32
2017-04-01T06:04:47.495Z,36.4
2017-04-01T06:05:57.404Z,36.42
2017-04-01T06:07:07.013Z,36.32
2017-04-01T06:08:17.215Z,36.5
2017-04-01T06:09:26.372Z,36.52
2017-04-01T06:10:35.983Z,36.13
2017-04-01T06:11:46.212Z,36.3
2017-04-01T06:12:56.151Z,36.3
2017-04-01T06:14:06.065Z,36.11
2017-04-01T06:15:16.318Z,36.32
2017-04-01T06:16:26.552Z,36.21
2017-04-01T06:17:36.473Z,35.82
2017-04-01T06:18:46.100Z,36.03
2017-04-01T06:19:56.013Z,35.84
2017-04-01T06:21:05.709Z,35.94
2017-04-01T06:22:15.929Z,36.03
2017-04-01T06:23:25.835Z,36.13
2017-04-01T06:24:35.751Z,35.74
2017-04-01T06:25:45.668Z,36.13
2017-04-01T06:26:56.261Z,35.94
2017-04-01T06:28:06.486Z,35.84
2017-04-01T06:29:16.433Z,35.84
2017-04-01T06:30:26.052Z,35.94
2017-04-01T06:31:36.286Z,35.84
2017-04-01T06:32:45.740Z,35.84
2017-04-01T06:33:55.761Z,35.84
2017-04-01T06:35:05.392Z,35.84
2017-04-01T06:36:15.307Z,35.94
2017-04-01T06:37:25.249Z,35.94
2017-04-01T06:38:35.638Z,36.03
2017-04-01T06:39:45.855Z,36.03
2017-04-01T06:40:56.072Z,35.74
2017-04-01T06:42:06.298Z,35.84
2017-04-01T06:43:15.308Z,35.84
2017-04-01T06:44:25.669Z,35.94
2017-04-01T06:45:35.891Z,35.84
2017-04-01T06:46:44.884Z,35.64
2017-04-01T06:47:54.813Z,35.64
2017-04-01T06:49:04.730Z,35.74
2017-04-01T06:50:14.171Z,35.64
2017-04-01T06:51:24.468Z,35.64
2017-04-01T06:52:34.119Z,35.64
2017-04-01T06:53:44.035Z,35.64
2017-04-01T06:54:53.398Z,35.64
2017-04-01T06:56:03.270Z,35.55
2017-04-01T06:57:12.581Z,35.64
2017-04-01T06:58:22.807Z,35.57
2017-04-01T06:59:32.440Z,35.74
2017-04-01T07:00:42.395Z,35.64
2017-04-01T07:01:52.871Z,35.55
2017-04-01T07:03:03.108Z,35.45
2017-04-01T07:04:12.721Z,35.45
2017-04-01T07:05:22.623Z,35.47
2017-04-01T07:06:32.572Z,35.66
2017-04-01T07:07:42.648Z,35.47
2017-04-01T07:08:52.298Z,35.66
2017-04-01T07:10:02.237Z,35.66
2017-04-01T07:11:11.876Z,35.28
2017-04-01T07:12:21.790Z,35.26
2017-04-01T07:13:32.043Z,35.47
2017-04-01T07:14:42.285Z,35.47
2017-04-01T07:15:51.589Z,35.47
2017-04-01T07:17:01.522Z,35.57
2017-04-01T07:18:11.146Z,35.64
2017-04-01T07:19:21.160Z,35.47
2017-04-01T07:20:31.092Z,35.37
2017-04-01T07:21:41.023Z,35.47
2017-04-01T07:22:50.942Z,35.37
2017-04-01T07:24:00.576Z,35.57
2017-04-01T07:25:10.339Z,35.57
2017-04-01T07:26:19.955Z,35.37
2017-04-01T07:27:30.186Z,35.37
2017-04-01T07:28:40.111Z,35.57
2017-04-01T07:29:50.342Z,35.57
2017-04-01T07:31:00.414Z,35.57
2017-04-01T07:32:10.650Z,35.66
2017-04-01T07:33:20.579Z,35.47
2017-04-01T07:34:30.851Z,35.28
2017-04-01T07:35:40.486Z,35.47
2017-04-01T07:36:50.193Z,35.28
2017-04-01T07:38:00.102Z,35.28
2017-04-01T07:39:10.020Z,35.28
2017-04-01T07:40:19.336Z,35.08
2017-04-01T07:41:28.970Z,35.18
2017-04-01T07:42:39.550Z,35.28
2017-04-01T07:43:49.512Z,35.08
2017-04-01T07:44:59.739Z,35.08
2017-04-01T07:46:09.677Z,35.2
2017-04-01T07:47:20.186Z,35.39
2017-04-01T07:48:31.383Z,35.29
2017-04-01T07:49:41.036Z,34.81
2017-04-01T07:50:51.253Z,34.81
2017-04-01T07:52:01.871Z,34.71
2017-04-01T07:53:11.804Z,34.52
2017-04-01T07:54:21.712Z,34.62
2017-04-01T07:55:31.486Z,34.62
2017-04-01T07:56:40.922Z,35.02
2017-04-01T07:57:50.605Z,34.44
2017-04-01T07:59:00.247Z,34.83
2017-04-01T08:00:10.797Z,34.42
2017-04-01T08:01:20.430Z,34.42
2017-04-01T08:02:30.685Z,34.25
2017-04-01T08:03:40.597Z,34.25
2017-04-01T08:04:50.211Z,34.44
2017-04-01T08:06:00.614Z,34.63
2017-04-01T08:07:09.930Z,34.54
2017-04-01T08:08:19.855Z,34.63
2017-04-01T08:09:29.797Z,34.15
2017-04-01T08:10:39.417Z,34.25
2017-04-01T08:11:49.499Z,34.25
2017-04-01T08:12:59.472Z,34.34
2017-04-01T08:14:09.408Z,34.34
2017-04-01T08:15:19.336Z,34.25
2017-04-01T08:16:28.967Z,34.25
2017-04-01T08:17:39.434Z,34.25
2017-04-01T08:18:48.745Z,34.15
2017-04-01T08:19:58.360Z,34.25
2017-04-01T08:21:07.660Z,34.25
2017-04-01T08:22:17.879Z,34.25
2017-04-01T08:23:27.738Z,34.25
2017-04-01T08:24:37.084Z,34.25
2017-04-01T08:25:46.689Z,34.25
2017-04-01T08:26:56.925Z,34.34
2017-04-01T08:28:06.880Z,34.34
2017-04-01T08:29:16.955Z,34.34
2017-04-01T08:30:26.915Z,34.25
2017-04-01T08:31:36.522Z,34.34
2017-04-01T08:32:45.823Z,34.45
2017-04-01T08:33:55.821Z,34.63
2017-04-01T08:35:06.307Z,34.44
2017-04-01T08:36:16.249Z,34.54
2017-04-01T08:37:26.167Z,34.63
2017-04-01T08:38:36.092Z,34.63
2017-04-01T08:39:46.375Z,34.34
2017-04-01T08:40:56.735Z,34.34
2017-04-01T08:42:06.042Z,34.54
2017-04-01T08:43:16.645Z,34.15
2017-04-01T08:44:26.980Z,34.34
2017-04-01T08:45:36.884Z,34.63
2017-04-01T08:46:47.609Z,34.54
2017-04-01T08:47:57.516Z,34.34
2017-04-01T08:49:07.440Z,34.34
2017-04-01T08:50:16.455Z,34.55
2017-04-01T08:51:26.730Z,34.65
2017-04-01T08:52:36.945Z,34.65
2017-04-01T08:53:47.203Z,34.75
2017-04-01T08:54:57.135Z,34.75
2017-04-01T08:56:06.774Z,34.65
2017-04-01T08:57:17.039Z,34.36
2017-04-01T08:58:28.367Z,34.75
2017-04-01T08:59:38.303Z,34.45
2017-04-01T09:00:48.520Z,34.36
2017-04-01T09:01:58.740Z,34.36
2017-04-01T09:03:08.372Z,34.55
2017-04-01T09:04:18.329Z,34.73
2017-04-01T09:05:27.943Z,34.65
2017-04-01T09:06:38.152Z,34.36
2017-04-01T09:07:47.461Z,34.65
2017-04-01T09:08:57.418Z,34.73
2017-04-01T09:10:07.791Z,34.75
2017-04-01T09:11:17.398Z,34.44
2017-04-01T09:12:27.583Z,34.55
2017-04-01T09:13:38.035Z,34.84
2017-04-01T09:14:49.409Z,34.36
2017-04-01T09:15:59.745Z,34.45
2017-04-01T09:17:09.365Z,34.45
2017-04-01T09:18:19.593Z,34.45
2017-04-01T09:19:29.538Z,34.75
2017-04-01T09:20:39.498Z,34.55
2017-04-01T09:21:50.535Z,34.65
2017-04-01T09:22:59.578Z,34.65
2017-04-01T09:24:09.205Z,34.84
2017-04-01T09:25:18.803Z,34.75
2017-04-01T09:26:28.725Z,34.75
2017-04-01T09:27:39.031Z,34.27
2017-04-01T09:28:48.622Z,34.55
2017-04-01T09:29:58.845Z,34.27
2017-04-01T09:31:08.762Z,34.36
2017-04-01T09:32:18.364Z,34.36
2017-04-01T09:33:28.754Z,34.36
2017-04-01T09:34:38.732Z,34.55
2017-04-01T09:35:48.677Z,34.36
2017-04-01T09:36:58.896Z,34.45
2017-04-01T09:38:08.824Z,34.65
2017-04-01T09:39:19.141Z,34.55
2017-04-01T09:40:29.479Z,34.55
2017-04-01T09:41:39.714Z,34.65
2017-04-01T09:42:49.635Z,34.65
2017-04-01T09:43:59.550Z,34.75
2017-04-01T09:45:09.228Z,34.75
2017-04-01T09:46:19.516Z,34.84
2017-04-01T09:47:29.753Z,34.84
2017-04-01T09:48:39.686Z,34.84
2017-04-01T09:49:49.286Z,35.04
2017-04-01T09:50:59.361Z,35.31
2017-04-01T09:52:09.288Z,35.33
2017-04-01T09:53:19.225Z,35.42
2017-04-01T09:54:29.210Z,35.23
2017-04-01T09:55:39.161Z,35.23
2017-04-01T09:56:49.176Z,35.13
2017-04-01T09:57:59.410Z,35.13
2017-04-01T09:59:09.013Z,35.23
2017-04-01T10:00:18.631Z,35.04
2017-04-01T10:01:28.542Z,35.13
2017-04-01T10:02:38.575Z,35.13
2017-04-01T10:03:48.182Z,35.13
2017-04-01T10:04:58.096Z,35.04
2017-04-01T10:06:08.321Z,35.33
2017-04-01T10:07:17.996Z,35.13
2017-04-01T10:08:28.106Z,35.23
2017-04-01T10:09:37.742Z,35.33
2017-04-01T10:10:48.183Z,35.13
2017-04-01T10:11:57.861Z,35.13
2017-04-01T10:13:07.820Z,35.21
2017-04-01T10:14:17.897Z,35.12
2017-04-01T10:15:27.533Z,35.13
2017-04-01T10:16:37.485Z,35.33
2017-04-01T10:17:47.414Z,35.13
2017-04-01T10:18:57.347Z,35.13
2017-04-01T10:20:07.639Z,35.33
2017-04-01T10:21:17.878Z,35.23
2017-04-01T10:22:27.799Z,35.13
2017-04-01T10:23:38.011Z,35.42
2017-04-01T10:24:48.239Z,35.42
2017-04-01T10:25:58.150Z,35.23
2017-04-01T10:27:08.102Z,35.33
2017-04-01T10:28:17.410Z,35.33
2017-04-01T10:29:27.340Z,35.33
2017-04-01T10:30:37.278Z,35.42
2017-04-01T10:31:47.322Z,35.33
2017-04-01T10:32:57.223Z,35.42
2017-04-01T10:34:06.870Z,35.33
2017-04-01T10:35:16.484Z,35.33
2017-04-01T10:36:26.734Z,35.33
2017-04-01T10:37:36.804Z,35.33
2017-04-01T10:38:46.415Z,35.13
2017-04-01T10:39:55.769Z,35.23
2017-04-01T10:41:05.686Z,35.33
2017-04-01T10:42:15.932Z,35.23
2017-04-01T10:43:25.367Z,35.33
2017-04-01T10:44:34.988Z,35.13
2017-04-01T10:45:45.223Z,35.33
2017-04-01T10:46:55.187Z,35.42
2017-04-01T10:48:04.813Z,35.33
2017-04-01T10:49:15.217Z,35.42
2017-04-01T10:50:25.205Z,35.44
2017-04-01T10:51:35.469Z,35.23
2017-04-01T10:52:45.382Z,35.42
2017-04-01T10:53:55.613Z,35.33
2017-04-01T10:55:05.874Z,35.23
2017-04-01T10:56:14.915Z,35.23
2017-04-01T10:57:24.314Z,35.23
2017-04-01T10:58:34.320Z,35.42
2017-04-01T10:59:44.314Z,35.62
2017-04-01T11:00:54.990Z,36.28
2017-04-01T11:02:05.241Z,36.76
2017-04-01T11:03:14.622Z,37.13
2017-04-01T11:04:24.278Z,37.7
2017-04-01T11:05:34.243Z,37.67
2017-04-01T11:06:44.460Z,37.96
2017-04-01T11:07:54.110Z,38.54
2017-04-01T11:09:04.359Z,38.62
2017-04-01T11:10:14.291Z,38.71
2017-04-01T11:11:24.243Z,39.37
2017-04-01T11:12:33.911Z,39.09
2017-04-01T11:13:43.841Z,39.66
2017-04-01T11:14:53.457Z,39.66
2017-04-01T11:16:03.395Z,39.57
2017-04-01T11:17:13.663Z,39.47
2017-04-01T11:18:23.450Z,39.57
2017-04-01T11:19:33.371Z,39.26
2017-04-01T11:20:43.630Z,39.54
2017-04-01T11:21:53.396Z,39.54
2017-04-01T11:23:03.321Z,39.74
2017-04-01T11:24:13.105Z,39.84
2017-04-01T11:25:23.028Z,39.74
2017-04-01T11:26:33.277Z,39.84
2017-04-01T11:27:42.882Z,39.74
2017-04-01T11:28:52.512Z,40.03
2017-04-01T11:30:02.840Z,39.64
2017-04-01T11:31:13.080Z,40.03
2017-04-01T11:32:23.311Z,39.91
2017-04-01T11:33:32.926Z,39.84
2017-04-01T11:34:42.527Z,40.11
2017-04-01T11:35:52.376Z,39.91
2017-04-01T11:37:02.294Z,40.01
2017-04-01T11:38:11.926Z,39.91
2017-04-01T11:39:22.174Z,39.91
2017-04-01T11:40:32.385Z,40.11
2017-04-01T11:41:42.717Z,40.01
2017-04-01T11:42:52.639Z,39.82
2017-04-01T11:44:02.551Z,40.59
2017-04-01T11:45:12.517Z,40.39
2017-04-01T11:46:21.514Z,40.3
2017-04-01T11:47:31.888Z,40.3
2017-04-01T11:48:41.493Z,40.49
2017-04-01T11:49:51.705Z,40.3
2017-04-01T11:51:01.943Z,40.3
2017-04-01T11:52:11.586Z,40.3
2017-04-01T11:53:21.649Z,40.3
2017-04-01T11:54:31.891Z,40.49
2017-04-01T11:55:41.818Z,40.37
2017-04-01T11:56:51.434Z,40.39
2017-04-01T11:58:01.348Z,40.3
2017-04-01T11:59:11.943Z,40.37
2017-04-01T12:00:22.189Z,40.59
2017-04-01T12:01:32.413Z,40.01
2017-04-01T12:02:42.045Z,39.72
2017-04-01T12:03:51.964Z,39.79
2017-04-01T12:05:02.247Z,39.72
2017-04-01T12:06:12.509Z,39.82
2017-04-01T12:07:21.805Z,39.82
2017-04-01T12:08:32.044Z,39.72
2017-04-01T12:09:41.362Z,39.24
2017-04-01T12:10:51.753Z,39.53
2017-04-01T12:12:01.988Z,39.43
2017-04-01T12:13:11.885Z,39.53
2017-04-01T12:14:21.803Z,39.34
2017-04-01T12:15:31.746Z,39.43
2017-04-01T12:16:42.597Z,39.43
2017-04-01T12:17:52.520Z,39.43
2017-04-01T12:19:02.452Z,39.14
2017-04-01T12:20:11.767Z,39.34
2017-04-01T12:21:21.056Z,39.53
2017-04-01T12:22:31.131Z,39.62
2017-04-01T12:23:40.761Z,39.53
2017-04-01T12:24:50.126Z,39.53
2017-04-01T12:26:00.035Z,39.24
2017-04-01T12:27:09.982Z,38.95
2017-04-01T12:28:19.879Z,38.95
2017-04-01T12:29:30.156Z,38.85
2017-04-01T12:30:40.405Z,39.14
2017-04-01T12:31:50.363Z,39.14
2017-04-01T12:32:59.964Z,39.14
2017-04-01T12:34:10.102Z,39.34
2017-04-01T12:35:20.018Z,39.43
2017-04-01T12:36:30.245Z,39.43
2017-04-01T12:37:40.155Z,38.76
2017-04-01T12:38:49.876Z,38.56
2017-04-01T12:40:00.105Z,38.66
2017-04-01T12:41:10.361Z,38.56
2017-04-01T12:42:20.589Z,38.66
2017-04-01T12:43:30.345Z,38.66
2017-04-01T12:44:39.998Z,38.68
2017-04-01T12:45:50.099Z,38.46
2017-04-01T12:47:00.349Z,38.56
2017-04-01T12:48:10.271Z,38.29
2017-04-01T12:49:20.189Z,38.29
2017-04-01T12:50:30.128Z,38.2
2017-04-01T12:51:39.825Z,38.2
2017-04-01T12:52:49.475Z,38.29
2017-04-01T12:53:59.182Z,38.39
2017-04-01T12:55:09.483Z,38.2
2017-04-01T12:56:19.401Z,38.2
2017-04-01T12:57:29.523Z,38.66
2017-04-01T12:58:39.540Z,38.46
2017-04-01T12:59:49.778Z,38.56
2017-04-01T13:00:59.097Z,38.37
2017-04-01T13:02:09.127Z,38.1
2017-04-01T13:03:18.933Z,38.39
2017-04-01T13:04:28.897Z,38.2
2017-04-01T13:05:38.507Z,38.39
2017-04-01T13:06:48.141Z,38.2
2017-04-01T13:07:58.077Z,38.49
2017-04-01T13:09:08.345Z,38.39
2017-04-01T13:10:17.668Z,38.49
2017-04-01T13:11:27.590Z,38.29
2017-04-01T13:12:37.519Z,38.39
2017-04-01T13:13:46.834Z,38.49
2017-04-01T13:14:57.119Z,38.49
2017-04-01T13:16:07.022Z,38.49
2017-04-01T13:17:17.278Z,38.68
2017-04-01T13:18:27.532Z,38.39
2017-04-01T13:19:37.473Z,38.39
2017-04-01T13:20:47.842Z,38.1
2017-04-01T13:21:58.103Z,37.62
2017-04-01T13:23:08.033Z,37.62
2017-04-01T13:24:17.941Z,37.91
2017-04-01T13:25:27.865Z,37.71
2017-04-01T13:26:38.441Z,37.62
2017-04-01T13:27:48.030Z,37.91
2017-04-01T13:28:57.638Z,37.73
2017-04-01T13:30:07.850Z,37.83
2017-04-01T13:31:18.078Z,37.93
2017-04-01T13:32:27.680Z,37.83
2017-04-01T13:33:37.619Z,37.83
2017-04-01T13:34:47.830Z,37.73
2017-04-01T13:35:57.805Z,37.73
2017-04-01T13:37:08.016Z,37.63
2017-04-01T13:38:18.804Z,37.73
2017-04-01T13:39:29.470Z,37.73
2017-04-01T13:40:39.397Z,37.63
2017-04-01T13:41:49.346Z,37.63
2017-04-01T13:42:59.289Z,37.73
2017-04-01T13:44:09.058Z,37.83
2017-04-01T13:45:18.992Z,37.83
2017-04-01T13:46:29.239Z,37.93
2017-04-01T13:47:39.281Z,37.93
2017-04-01T13:48:49.223Z,37.83
2017-04-01T13:49:58.846Z,38.02
2017-04-01T13:51:08.784Z,37.54
2017-04-01T13:52:18.696Z,37.73
2017-04-01T13:53:28.021Z,37.73
2017-04-01T13:54:37.339Z,37.83
2017-04-01T13:55:48.159Z,37.83
2017-04-01T13:56:57.932Z,37.83
2017-04-01T13:58:08.609Z,37.83
2017-04-01T13:59:18.527Z,37.83
2017-04-01T14:00:28.761Z,37.81
2017-04-01T14:01:38.693Z,37.83
2017-04-01T14:02:48.303Z,37.73
2017-04-01T14:03:58.527Z,37.71
2017-04-01T14:05:08.186Z,37.62
2017-04-01T14:06:18.450Z,37.62
2017-04-01T14:07:28.045Z,37.62
2017-04-01T14:08:37.648Z,37.62
2017-04-01T14:09:47.258Z,37.81
2017-04-01T14:10:57.169Z,37.81
2017-04-01T14:12:06.775Z,37.71
2017-04-01T14:13:16.372Z,37.52
2017-04-01T14:14:26.594Z,37.71
2017-04-01T14:15:36.209Z,37.81
2017-04-01T14:16:45.827Z,37.71
2017-04-01T14:17:55.578Z,37.71
2017-04-01T14:19:04.896Z,37.91
2017-04-01T14:20:15.105Z,37.62
2017-04-01T14:21:25.006Z,37.52
2017-04-01T14:22:35.607Z,37.81
2017-04-01T14:23:46.563Z,37.81
2017-04-01T14:24:56.285Z,37.71
2017-04-01T14:26:05.890Z,37.71
2017-04-01T14:27:15.497Z,37.71
2017-04-01T14:28:25.115Z,37.81
2017-04-01T14:29:35.645Z,37.81
2017-04-01T14:30:45.293Z,37.62
2017-04-01T14:31:55.520Z,37.71
2017-04-01T14:33:05.453Z,37.62
2017-04-01T14:34:15.891Z,37.81
2017-04-01T14:35:26.825Z,37.81
2017-04-01T14:36:36.855Z,37.91
2017-04-01T14:37:47.059Z,38.01
2017-04-01T14:38:57.925Z,38.01
2017-04-01T14:40:08.544Z,38.2
2017-04-01T14:41:19.972Z,38.01
2017-04-01T14:42:29.922Z,38.01
2017-04-01T14:43:39.749Z,38.01
2017-04-01T14:44:49.127Z,38.01
2017-04-01T14:45:58.767Z,38.01
2017-04-01T14:47:09.034Z,38.01
2017-04-01T14:48:18.963Z,38.2
2017-04-01T14:49:29.048Z,38.1
2017-04-01T14:50:38.717Z,38.1
2017-04-01T14:51:48.716Z,38.1
2017-04-01T14:52:59.004Z,37.91
2017-04-01T14:54:08.960Z,37.91
2017-04-01T14:55:18.408Z,37.91
2017-04-01T14:56:28.351Z,38.01
2017-04-01T14:57:37.942Z,37.81
2017-04-01T14:58:47.330Z,37.71
2017-04-01T14:59:57.266Z,37.81
2017-04-01T15:01:06.108Z,37.71
2017-04-01T15:02:16.041Z,37.81
2017-04-01T15:03:26.024Z,37.71